Time;durP1;ratioP1;P1;durP2;ratioP2;P2;SDS_P1;SDS_P2;PMS_P1;PMS_P2;Temp;Humidity;BMP_temperature;BMP_pressure;BME280_temperature;BME280_humidity;BME280_pressure;Samples;Min_cycle;Max_cycle;Signal;HPM_P1;HPM_P2
2023/02/03 00:03:46;;;;;;;1999.90;999.90;;;;;;;8.26;100.00;102356.69;10462479;28;20106;-64
2023/02/03 00:08:48;;;;;;;1999.90;999.90;;;;;;;8.27;100.00;102354.94;10461378;28;20053;-64
2023/02/03 00:13:50;;;;;;;1999.90;999.90;;;;;;;8.31;100.00;102351.38;10462011;28;20052;-64
2023/02/03 00:18:52;;;;;;;1999.90;999.90;;;;;;;8.13;100.00;102355.25;10444326;28;20053;-64
2023/02/03 00:23:55;;;;;;;1999.90;999.90;;;;;;;8.48;100.00;102364.06;10461049;28;20057;-64
2023/02/03 00:28:59;;;;;;;1999.90;999.90;;;;;;;8.38;100.00;102385.09;10458913;28;20053;-64
2023/02/03 00:34:01;;;;;;;1999.90;999.90;;;;;;;8.30;100.00;102389.63;10460483;28;20510;-64
2023/02/03 00:39:04;;;;;;;1999.90;999.90;;;;;;;8.22;100.00;102393.31;10459075;28;20391;-64
2023/02/03 00:44:06;;;;;;;1999.90;999.90;;;;;;;8.24;100.00;102408.06;10459817;28;20099;-64
2023/02/03 00:49:08;;;;;;;1999.90;999.90;;;;;;;8.32;100.00;102400.94;10458879;28;20365;-64
2023/02/03 00:54:12;;;;;;;1999.90;999.90;;;;;;;8.34;100.00;102404.34;10461406;28;20049;-64
2023/02/03 00:59:14;;;;;;;1999.90;999.90;;;;;;;8.22;100.00;102403.75;10457822;28;20063;-64
2023/02/03 01:04:17;;;;;;;1999.90;999.90;;;;;;;8.29;100.00;102406.22;10459718;28;20538;-64
2023/02/03 01:09:19;;;;;;;1999.90;999.90;;;;;;;8.29;100.00;102407.97;10459235;28;20049;-64
2023/02/03 01:14:21;;;;;;;1999.90;999.90;;;;;;;8.27;100.00;102420.16;10466845;23;20053;-63
2023/02/03 01:19:24;;;;;;;1999.90;999.90;;;;;;;8.27;100.00;102407.13;10459583;28;20056;-64
2023/02/03 01:24:27;;;;;;;1999.90;999.90;;;;;;;8.24;100.00;102388.91;10441080;28;20057;-63
2023/02/03 01:29:30;;;;;;;1999.90;999.90;;;;;;;8.31;100.00;102398.34;10457680;28;20083;-63
2023/02/03 01:34:32;;;;;;;1999.90;999.90;;;;;;;8.29;100.00;102392.31;10459095;28;20098;-63
2023/02/03 01:39:35;;;;;;;1999.90;999.90;;;;;;;8.21;100.00;102382.03;10457610;28;20052;-63
2023/02/03 01:44:50;;;;;;;1999.90;999.90;;;;;;;8.27;100.00;102367.97;10456945;28;20110;-63
2023/02/03 01:50:26;;;;;;;1999.90;999.90;;;;;;;8.17;100.00;102368.19;10415095;28;20104;-63
2023/02/03 01:55:41;;;;;;;1999.90;999.90;;;;;;;8.21;100.00;102358.56;10416038;28;20045;-63
2023/02/03 02:00:44;;;;;;;1999.90;999.90;;;;;;;8.29;100.00;102330.53;10455672;28;20053;-64
2023/02/03 02:05:59;;;;;;;1999.90;999.90;;;;;;;8.23;100.00;102341.09;10455370;28;20098;-64
2023/02/03 02:11:02;;;;;;;1999.90;999.90;;;;;;;8.27;100.00;102347.97;10455936;28;20550;-63
2023/02/03 02:16:27;;;;;;;1999.90;999.90;;;;;;;8.33;100.00;102331.31;10438365;28;20053;-63
2023/02/03 02:21:48;;;;;;;1999.90;999.90;;;;;;;8.26;100.00;102325.38;10456272;28;20057;-64
2023/02/03 02:27:20;;;;;;;1999.90;999.90;;;;;;;8.28;100.00;102309.69;10454358;28;20106;-63
2023/02/03 02:32:40;;;;;;;1999.90;999.90;;;;;;;8.43;100.00;102300.66;10415876;28;20291;-63
2023/02/03 02:37:59;;;;;;;1999.90;999.90;;;;;;;8.38;100.00;102325.06;10398304;28;20049;-63
2023/02/03 02:43:10;;;;;;;1999.90;999.90;;;;;;;8.41;100.00;102320.72;10415362;28;20495;-63
2023/02/03 02:48:22;;;;;;;1999.90;999.90;;;;;;;8.37;100.00;102335.56;10454579;28;20053;-63
2023/02/03 02:53:26;;;;;;;1999.90;999.90;;;;;;;8.47;100.00;102334.50;10455153;28;20110;-63
2023/02/03 02:58:29;;;;;;;1999.90;999.90;;;;;;;8.43;100.00;102311.97;10456779;28;20056;-63
2023/02/03 03:03:32;;;;;;;1999.90;999.90;;;;;;;8.31;100.00;102322.66;10463749;28;20049;-63
2023/02/03 03:08:42;;;;;;;1999.90;999.90;;;;;;;8.40;100.00;102303.31;10462887;28;20487;-63
2023/02/03 03:13:49;;;;;;;1999.90;999.90;;;;;;;8.41;100.00;102277.19;10464137;28;20057;-63
2023/02/03 03:19:06;;;;;;;1999.90;999.90;;;;;;;8.36;100.00;102268.59;10446092;28;20479;-63
2023/02/03 03:24:11;;;;;;;1999.90;999.90;;;;;;;8.47;100.00;102284.03;10436124;28;20561;-63
2023/02/03 03:29:30;;;;;;;1999.90;999.90;;;;;;;8.50;100.00;102286.56;10461809;28;20049;-64
2023/02/03 03:34:32;;;;;;;1999.90;999.90;;;;;;;8.42;100.00;102299.75;10463858;28;20049;-63
2023/02/03 03:39:43;;;;;;;1999.90;999.90;;;;;;;8.47;100.00;102297.06;10462874;28;20442;-63
2023/02/03 03:45:08;;;;;;;1999.90;999.90;;;;;;;8.47;100.00;102290.13;10462302;28;20049;-63
2023/02/03 03:50:18;;;;;;;1999.90;999.90;;;;;;;8.56;100.00;102309.91;10460534;28;20484;-63
2023/02/03 03:55:21;;;;;;;1999.90;999.90;;;;;;;8.47;100.00;102308.41;10460857;28;20053;-63
2023/02/03 04:00:26;;;;;;;1999.90;999.90;;;;;;;8.53;100.00;102304.75;10459786;28;20669;-63
2023/02/03 04:05:31;;;;;;;1999.90;999.90;;;;;;;8.52;100.00;102314.34;10460221;28;20052;-63
2023/02/03 04:10:36;;;;;;;1999.90;999.90;;;;;;;8.57;100.00;102321.22;10418733;28;20053;-63
2023/02/03 04:15:38;;;;;;;1999.90;999.90;;;;;;;8.59;100.00;102314.19;10420148;28;20378;-63
2023/02/03 04:20:41;;;;;;;1999.90;999.90;;;;;;;8.50;100.00;102307.44;10427305;28;20048;-63
2023/02/03 04:25:43;;;;;;;1999.90;999.90;;;;;;;8.48;100.00;102330.97;10458159;28;20496;-63
2023/02/03 04:30:45;;;;;;;1999.90;999.90;;;;;;;8.50;100.00;102310.06;10459814;28;20494;-63
2023/02/03 04:35:48;;;;;;;1999.90;999.90;;;;;;;8.55;100.00;102300.34;10460282;28;20049;-63
2023/02/03 04:40:50;;;;;;;1999.90;999.90;;;;;;;8.50;100.00;102310.06;10460527;28;20045;-63
2023/02/03 04:45:52;;;;;;;1999.90;999.90;;;;;;;8.53;100.00;102294.31;10460029;28;20044;-63
2023/02/03 04:50:59;;;;;;;1999.90;999.90;;;;;;;8.57;100.00;102295.94;10460835;28;20103;-63
2023/02/03 04:56:01;;;;;;;1999.90;999.90;;;;;;;8.46;100.00;102293.63;10458791;28;20053;-63
2023/02/03 05:01:08;;;;;;;1999.90;999.90;;;;;;;8.50;100.00;102274.34;10460481;28;20049;-63
2023/02/03 05:06:11;;;;;;;1999.90;999.90;;;;;;;8.51;100.00;102288.28;10456358;28;20048;-63
2023/02/03 05:11:13;;;;;;;1999.90;999.90;;;;;;;8.61;100.00;102295.00;10460071;28;20053;-63
2023/02/03 05:16:15;;;;;;;1999.90;999.90;;;;;;;8.53;100.00;102276.91;10441625;28;20053;-63
2023/02/03 05:21:18;;;;;;;1999.90;999.90;;;;;;;8.48;100.00;102276.16;10456398;28;20407;-63
2023/02/03 05:26:20;;;;;;;1999.90;999.90;;;;;;;8.44;100.00;102289.31;10439460;28;20049;-63
2023/02/03 05:31:22;;;;;;;1999.90;999.90;;;;;;;8.47;100.00;102282.28;10459229;28;20140;-63
2023/02/03 05:36:25;;;;;;;1999.90;999.90;;;;;;;8.58;100.00;102296.81;10458414;28;20527;-63
2023/02/03 05:46:48;;;;;;;1999.90;999.90;;;;;;;8.51;100.00;102288.28;10455341;28;20530;-63
2023/02/03 05:51:52;;;;;;;1999.90;999.90;;;;;;;8.56;100.00;102289.03;10458441;28;20057;-63
2023/02/03 05:56:54;;;;;;;1999.90;999.90;;;;;;;8.45;100.00;102301.47;10456124;28;20053;-63
2023/02/03 06:01:56;;;;;;;1999.90;999.90;;;;;;;8.48;100.00;102301.41;10458058;28;20061;-64
2023/02/03 06:06:58;;;;;;;1999.90;999.90;;;;;;;8.53;100.00;102296.94;10456773;28;20381;-64
2023/02/03 06:12:01;;;;;;;1999.90;999.90;;;;;;;8.50;100.00;102294.41;10457697;28;20103;-63
2023/02/03 06:17:03;;;;;;;1999.90;999.90;;;;;;;8.47;100.00;102295.34;10456911;28;20052;-63
2023/02/03 06:22:06;;;;;;;1999.90;999.90;;;;;;;8.51;100.00;102278.69;10438727;28;20067;-63
2023/02/03 06:27:08;;;;;;;1999.90;999.90;;;;;;;8.50;100.00;102299.63;10455083;28;20048;-63
2023/02/03 06:32:10;;;;;;;1999.90;999.90;;;;;;;8.49;100.00;102308.31;10456002;28;20057;-63
2023/02/03 06:37:13;;;;;;;1999.90;999.90;;;;;;;8.49;100.00;102295.28;10455681;28;20049;-63
2023/02/03 06:42:15;;;;;;;1999.90;999.90;;;;;;;8.43;100.00;102301.53;10455459;28;20057;-63
2023/02/03 06:47:18;;;;;;;1999.90;999.90;;;;;;;8.48;100.00;102302.25;10455631;28;20049;-63
2023/02/03 06:52:20;;;;;;;1999.90;999.90;;;;;;;8.49;100.00;102318.78;10438088;28;20056;-63
2023/02/03 06:57:22;;;;;;;1999.90;999.90;;;;;;;8.51;100.00;102333.50;10455639;28;20481;-63
2023/02/03 07:02:25;;;;;;;1999.90;999.90;;;;;;;8.50;100.00;102342.22;10456458;28;20111;-63
2023/02/03 07:07:27;;;;;;;1999.90;999.90;;;;;;;8.37;100.00;102333.81;10455082;28;20051;-63
2023/02/03 07:12:30;;;;;;;1999.90;999.90;;;;;;;8.42;100.00;102338.06;10456245;28;20057;-63
2023/02/03 07:17:32;;;;;;;1999.90;999.90;;;;;;;8.37;100.00;102339.03;10455482;28;20484;-63
2023/02/03 07:22:35;;;;;;;1999.90;999.90;;;;;;;8.41;100.00;102332.00;10436520;28;20099;-64
2023/02/03 07:27:37;;;;;;;1999.90;999.90;;;;;;;8.43;100.00;102355.47;10454076;28;20052;-63
2023/02/03 07:32:39;;;;;;;1999.90;999.90;;;;;;;8.38;100.00;102376.44;10437122;28;20063;-63
2023/02/03 07:37:42;;;;;;;1999.90;999.90;;;;;;;8.30;100.00;102357.47;10455799;28;20192;-63
2023/02/03 07:42:49;;;;;;;1999.90;999.90;;;;;;;8.36;100.00;102365.16;10453418;28;20056;-63
2023/02/03 07:47:51;;;;;;;1999.90;999.90;;;;;;;8.38;100.00;102352.94;10459563;28;20061;-63
2023/02/03 07:52:54;;;;;;;1999.90;999.90;;;;;;;8.31;100.00;102352.22;10463121;28;20053;-63
2023/02/03 07:57:57;;;;;;;1999.90;999.90;;;;;;;8.31;100.00;102361.81;10463086;28;20053;-63
2023/02/03 08:02:59;;;;;;;1999.90;999.90;;;;;;;8.42;100.00;102351.09;10461558;28;20099;-63
2023/02/03 08:08:02;;;;;;;1999.90;999.90;;;;;;;8.40;100.00;102372.03;10461658;28;20049;-63
2023/02/03 08:13:04;;;;;;;1999.90;999.90;;;;;;;8.51;100.00;102374.44;10456768;28;20063;-64
2023/02/03 08:18:08;;;;;;;1999.90;999.90;;;;;;;8.43;100.00;102381.59;10462093;28;20102;-63
2023/02/03 08:23:11;;;;;;;1999.90;999.90;;;;;;;8.51;100.00;102357.00;10462054;28;20106;-63
2023/02/03 08:28:13;;;;;;;1999.90;999.90;;;;;;;8.51;100.00;102409.22;10460134;28;20056;-63
2023/02/03 08:33:15;;;;;;;1999.90;999.90;;;;;;;8.48;100.00;102416.25;10461637;28;20053;-63
2023/02/03 08:38:18;;;;;;;1999.90;999.90;;;;;;;8.62;100.00;102401.13;10459948;28;20079;-63
2023/02/03 08:43:20;;;;;;;1999.90;999.90;;;;;;;8.64;100.00;102398.47;10460675;28;20053;-63
2023/02/03 08:48:22;;;;;;;1999.90;999.90;;;;;;;8.59;100.00;102400.34;10458077;28;20048;-64
2023/02/03 08:53:25;;;;;;;1999.90;999.90;;;;;;;8.71;100.00;102381.78;10459186;28;20049;-64
2023/02/03 08:58:27;;;;;;;1999.90;999.90;;;;;;;8.83;100.00;102381.47;10454631;28;20443;-63
2023/02/03 09:03:30;;;;;;;1999.90;999.90;;;;;;;8.71;100.00;102393.09;10477438;28;20053;-63
2023/02/03 09:08:32;;;;;;;1999.90;999.90;;;;;;;8.70;100.00;102399.19;10500911;28;20380;-63
2023/02/03 09:13:34;;;;;;;1999.90;999.90;;;;;;;8.78;100.00;102411.22;10449656;28;20099;-62
2023/02/03 09:18:36;;;;;;;1999.90;999.90;;;;;;;8.71;100.00;102427.03;10438146;28;20053;-64
2023/02/03 09:23:39;;;;;;;1999.90;999.90;;;;;;;8.89;100.00;102414.41;10459518;28;20057;-64
2023/02/03 09:28:42;;;;;;;1999.90;999.90;;;;;;;8.87;100.00;102422.28;10458768;28;20504;-64
2023/02/03 09:33:44;;;;;;;1999.90;999.90;;;;;;;8.89;100.00;102417.03;10441608;28;20049;-64
2023/02/03 09:38:47;;;;;;;1999.90;999.90;;;;;;;8.88;100.00;102417.94;10459000;28;20059;-64
2023/02/03 09:44:28;;;;;;;1999.90;999.90;;;;;;;8.81;100.00;102427.69;10458894;28;20060;-64
2023/02/03 09:49:40;;;;;;;1999.90;999.90;;;;;;;8.87;100.00;102413.59;10449066;28;20483;-64
2023/02/03 09:55:05;;;;;;;1999.90;999.90;;;;;;;8.89;100.00;102417.03;10440122;28;20115;-64
2023/02/03 10:00:23;;;;;;;1999.90;999.90;;;;;;;8.85;100.00;102418.88;10458279;28;20055;-64
2023/02/03 10:05:49;;;;;;;1999.90;999.90;;;;;;;8.96;100.00;102434.28;10439669;28;20507;-64
2023/02/03 10:11:26;;;;;;;1999.90;999.90;;;;;;;8.86;100.00;102436.25;10440131;28;20049;-63
2023/02/03 10:16:43;;;;;;;1999.90;999.90;;;;;;;8.91;100.00;102434.41;10457106;28;20104;-64
2023/02/03 10:21:55;;;;;;;1999.90;999.90;;;;;;;8.88;100.00;102444.06;10457664;28;20057;-64
2023/02/03 10:26:58;;;;;;;1999.90;999.90;;;;;;;8.88;100.00;102449.28;10439667;28;20049;-64
2023/02/03 10:32:01;;;;;;;1999.90;999.90;;;;;;;8.95;100.00;102434.31;10439522;28;20052;-63
2023/02/03 10:37:27;;;;;;;1999.90;999.90;;;;;;;8.91;100.00;102439.63;10439970;28;20127;-63
2023/02/03 10:43:46;;;;;;;1999.90;999.90;;;;;;;8.92;100.00;102441.31;10456971;28;20049;-63
2023/02/03 10:47:55;;;;;;;1999.90;999.90;;;;;;;9.00;100.00;102467.28;10441500;28;20053;-64
2023/02/03 10:53:19;;;;;;;1999.90;999.90;;;;;;;8.96;100.00;102468.25;10438880;28;20057;-63
2023/02/03 10:58:29;;;;;;;1999.90;999.90;;;;;;;9.07;100.00;102470.59;10455874;28;20056;-63
2023/02/03 11:03:31;;;;;;;1999.90;999.90;;;;;;;9.06;100.00;102476.69;10456571;28;20056;-63
2023/02/03 11:08:36;;;;;;;1999.90;999.90;;;;;;;9.06;100.00;102464.53;10421802;28;20385;-63
2023/02/03 11:13:39;;;;;;;1999.90;999.90;;;;;;;9.16;100.00;102452.06;10439093;28;20053;-63
2023/02/03 11:19:04;;;;;;;1999.90;999.90;;;;;;;9.35;100.00;102457.69;10456707;28;20053;-63
2023/02/03 11:24:27;;;;;;;1999.90;999.90;;;;;;;9.35;100.00;102462.09;10446203;28;20496;-63
2023/02/03 11:29:33;;;;;;;1999.90;999.90;;;;;;;9.60;100.00;102459.66;10464066;28;20048;-63
2023/02/03 11:34:41;;;;;;;1999.90;999.90;;;;;;;9.58;100.00;102464.06;10461593;28;20057;-64
2023/02/03 11:39:44;;;;;;;1999.90;999.90;;;;;;;9.59;100.00;102471.88;10463836;28;20045;-64
2023/02/03 11:44:46;;;;;;;1999.90;999.90;;;;;;;9.77;100.00;102443.53;10461718;28;20103;-64
2023/02/03 11:50:17;;;;;;;1999.90;999.90;;;;;;;9.82;100.00;102450.34;10459598;28;20057;-64
2023/02/03 11:55:31;;;;;;;1999.90;999.90;;;;;;;9.94;100.00;102461.38;10441028;28;20053;-64
2023/02/03 12:01:09;;;;;;;1999.90;999.90;;;;;;;10.06;100.00;102462.78;10462377;28;20060;-64
2023/02/03 12:06:42;;;;;;;1999.90;999.90;;;;;;;10.08;100.00;102453.97;10460079;28;20049;-64
2023/02/03 12:12:00;;;;;;;1999.90;999.90;;;;;;;10.05;100.00;102448.81;10459828;28;20175;-64
2023/02/03 12:17:14;;;;;;;1999.90;999.90;;;;;;;10.25;100.00;102453.47;10460649;28;20059;-64
2023/02/03 12:22:33;;;;;;;1999.90;999.90;;;;;;;10.21;100.00;102478.03;10461365;28;20390;-64
2023/02/03 12:27:52;;;;;;;1999.90;999.90;;;;;;;10.31;100.00;102491.72;10456531;28;20049;-63
2023/02/03 12:32:58;;;;;;;1999.90;999.90;;;;;;;10.44;100.00;102485.25;10458221;28;20060;-64
2023/02/03 12:38:11;;;;;;;1999.90;999.90;;;;;;;10.41;100.00;102494.03;10442984;28;20128;-65
2023/02/03 12:43:37;;;;;;;1999.90;999.90;;;;;;;10.39;100.00;102498.47;10450692;28;20122;-64
2023/02/03 12:48:48;;;;;;;1999.90;999.90;;;;;;;10.31;100.00;102489.09;10442673;28;20053;-64
2023/02/03 12:53:55;;;;;;;1999.90;999.90;;;;;;;10.40;100.00;102492.31;10442632;28;20057;-64
2023/02/03 12:59:05;;;;;;;1999.90;999.90;;;;;;;10.31;100.00;102508.28;10443398;28;20103;-64
2023/02/03 13:04:24;;;;;;;1999.90;999.90;;;;;;;10.18;100.00;102502.53;10443293;28;20060;-64
2023/02/03 13:09:33;;;;;;;1999.90;999.90;;;;;;;10.10;100.00;102504.50;10442709;28;20111;-64
2023/02/03 13:14:48;;;;;;;1999.90;999.90;;;;;;;10.04;100.00;102500.31;10425369;28;20053;-64
2023/02/03 13:20:21;;;;;;;1999.90;999.90;;;;;;;9.84;100.00;102510.47;10460015;28;20059;-64
2023/02/03 13:25:35;;;;;;;1999.90;999.90;;;;;;;9.76;100.00;102551.66;10466186;28;20061;-64
2023/02/03 13:30:44;;;;;;;1999.90;999.90;;;;;;;9.74;100.00;102545.63;10429527;23;20520;-72
2023/02/03 13:35:52;;;;;;;1999.90;999.90;;;;;;;9.61;100.00;102542.44;10417941;28;20132;-72
2023/02/03 13:41:15;;;;;;;1999.90;999.90;;;;;;;9.45;100.00;102550.69;10417428;28;20057;-72
2023/02/03 13:46:31;;;;;;;1999.90;999.90;;;;;;;9.33;100.00;102561.44;10416306;28;20045;-72
2023/02/03 13:51:45;;;;;;;1999.90;999.90;;;;;;;9.40;100.00;102556.94;10415249;28;20094;-73
2023/02/03 13:57:18;;;;;;;1999.90;999.90;;;;;;;9.49;100.00;102547.09;10399782;28;20057;-73
2023/02/03 14:02:23;;;;;;;1999.90;999.90;;;;;;;9.45;100.00;102545.47;10417013;28;20064;-72
2023/02/03 14:07:36;;;;;;;1999.90;999.90;;;;;;;9.53;100.00;102547.00;10416835;28;20104;-73
2023/02/03 14:12:51;;;;;;;1999.90;999.90;;;;;;;9.32;100.00;102544.03;10414949;28;20053;-72
2023/02/03 14:17:57;;;;;;;1999.90;999.90;;;;;;;9.33;100.00;102544.88;10416525;28;20060;-72
2023/02/03 14:23:06;;;;;;;1999.90;999.90;;;;;;;9.42;100.00;102548.13;10415933;28;20611;-73
2023/02/03 14:28:19;;;;;;;1999.90;999.90;;;;;;;9.49;100.00;102567.16;10415406;28;20484;-74
2023/02/03 14:33:24;;;;;;;1999.90;999.90;;;;;;;9.35;100.00;102577.09;10414403;28;20111;-75
2023/02/03 14:38:30;;;;;;;1999.90;999.90;;;;;;;9.40;100.00;102597.00;10414916;28;20057;-75
2023/02/03 14:43:33;;;;;;;1999.90;999.90;;;;;;;9.38;100.00;102593.56;10415824;28;20053;-75
2023/02/03 14:48:49;;;;;;;1999.90;999.90;;;;;;;9.36;100.00;102605.78;10414977;28;20493;-74
2023/02/03 14:54:14;;;;;;;1999.90;999.90;;;;;;;9.31;100.00;102615.50;10414935;28;20053;-74
2023/02/03 14:59:17;;;;;;;1999.90;999.90;;;;;;;9.36;100.00;102604.94;10415455;28;20061;-74
2023/02/03 15:04:22;;;;;;;1999.90;999.90;;;;;;;9.42;100.00;102608.28;10415418;28;20061;-75
2023/02/03 15:09:37;;;;;;;1999.90;999.90;;;;;;;9.41;100.00;102597.84;10414561;28;20518;-74
2023/02/03 15:14:40;;;;;;;1999.90;999.90;;;;;;;9.28;100.00;102605.97;10413360;28;20058;-74
2023/02/03 15:19:42;;;;;;;1999.90;999.90;;;;;;;9.31;100.00;102605.03;10414527;28;20050;-74
2023/02/03 15:24:45;;;;;;;1999.90;999.90;;;;;;;9.27;100.00;102600.78;10397522;28;20049;-74
2023/02/03 15:29:47;;;;;;;1999.90;999.90;;;;;;;9.34;100.00;102598.91;10413205;28;20054;-74
2023/02/03 15:34:51;;;;;;;1999.90;999.90;;;;;;;9.13;100.00;102608.06;10414852;28;20088;-74
2023/02/03 15:40:03;;;;;;;1999.90;999.90;;;;;;;9.12;100.00;102602.00;10413582;28;20103;-74
2023/02/03 15:45:05;;;;;;;;;;;;;;;9.00;100.00;102608.34;10414019;28;20050;-74
2023/02/03 15:50:15;;;;;;;;;;;;;;;9.13;100.00;102621.13;10414933;28;19921;-75
2023/02/03 15:55:33;;;;;;;1999.90;999.90;;;;;;;9.16;100.00;102616.69;10413330;28;19920;-74
2023/02/03 16:00:38;;;;;;;1999.90;999.90;;;;;;;9.12;100.00;102638.56;10414316;28;20050;-74
2023/02/03 16:05:43;;;;;;;1999.90;999.90;;;;;;;9.07;100.00;102637.81;10414281;28;20088;-74
2023/02/03 16:10:45;;;;;;;1999.90;999.90;;;;;;;9.18;100.00;102661.97;10403878;28;20090;-74
2023/02/03 16:16:20;;;;;;;1999.90;999.90;;;;;;;8.99;100.00;102660.63;10403085;28;20459;-74
2023/02/03 16:21:34;;;;;;;1999.90;999.90;;;;;;;9.08;100.00;102668.28;10395977;28;20057;-74
2023/02/03 16:26:37;;;;;;;1999.90;999.90;;;;;;;9.03;100.00;102668.38;10419667;28;20077;-74
2023/02/03 16:53:31;;;;;;;1999.90;999.90;;;;;;;8.68;100.00;102706.50;10418907;28;20050;-74
2023/02/03 16:58:34;;;;;;;1999.90;999.90;;;;;;;8.58;100.00;102711.94;10419016;28;20496;-74
2023/02/03 17:03:37;;;;;;;1999.90;999.90;;;;;;;8.67;100.00;102702.16;10418815;28;20412;-74
2023/02/03 17:08:40;;;;;;;1999.90;999.90;;;;;;;8.51;100.00;102699.00;10417339;28;20550;-74
2023/02/03 17:13:42;;;;;;;1999.90;999.90;;;;;;;8.49;100.00;102706.00;10401505;28;20049;-74
2023/02/03 17:18:45;;;;;;;1999.90;999.90;;;;;;;8.45;100.00;102729.56;10417076;28;20050;-74
2023/02/03 17:23:48;;;;;;;1999.90;999.90;;;;;;;8.39;100.00;102738.34;10410338;28;20061;-74
2023/02/03 17:28:50;;;;;;;1999.90;999.90;;;;;;;8.27;100.00;102744.63;10416457;28;20054;-74
2023/02/03 17:33:53;;;;;;;1999.90;999.90;;;;;;;8.27;100.00;102748.97;10414998;28;20053;-74
2023/02/03 17:38:58;;;;;;;1999.90;999.90;;;;;;;8.21;100.00;102757.78;10417366;28;20484;-74
2023/02/03 17:44:18;;;;;;;1999.90;999.90;;;;;;;8.23;100.00;102766.44;10403307;28;20132;-74
2023/02/03 17:49:38;;;;;;;1999.90;999.90;;;;;;;8.15;100.00;102786.56;10402555;28;20037;-73
2023/02/03 17:54:58;;;;;;;1999.90;999.90;;;;;;;8.21;100.00;102806.50;10416991;28;20049;-74
2023/02/03 18:00:00;;;;;;;1999.90;999.90;;;;;;;8.26;100.00;102800.31;10417141;28;20061;-74
2023/02/03 18:05:02;;;;;;;1999.90;999.90;;;;;;;8.13;100.00;102806.59;10399011;28;20451;-74
2023/02/03 18:10:05;;;;;;;1999.90;999.90;;;;;;;8.22;100.00;102818.66;10399492;28;20053;-74
2023/02/03 18:15:07;;;;;;;1999.90;999.90;;;;;;;8.09;100.00;102824.06;10416709;28;20100;-74
2023/02/03 18:20:11;;;;;;;1999.90;999.90;;;;;;;8.24;100.00;102830.81;10416542;28;20050;-74
2023/02/03 18:25:16;;;;;;;1999.90;999.90;;;;;;;8.06;100.00;102844.13;10398603;28;20105;-74
2023/02/03 18:30:20;;;;;;;1999.90;999.90;;;;;;;8.13;100.00;102835.31;10397684;28;20085;-74
2023/02/03 18:35:23;;;;;;;1999.90;999.90;;;;;;;7.99;100.00;102848.56;10415351;28;20416;-74
2023/02/03 18:40:25;;;;;;;1999.90;999.90;;;;;;;8.02;100.00;102852.84;10411248;28;20052;-74
2023/02/03 18:45:28;;;;;;;1999.90;999.90;;;;;;;7.97;100.00;102864.22;10414445;28;20069;-74
2023/02/03 18:50:31;;;;;;;1999.90;999.90;;;;;;;7.98;100.00;102872.91;10413693;28;20100;-74
2023/02/03 18:55:33;;;;;;;1999.90;999.90;;;;;;;7.97;100.00;102866.84;10412039;28;20463;-75
2023/02/03 19:00:36;;;;;;;1999.90;999.90;;;;;;;7.97;100.00;102869.44;10414579;28;20476;-74
2023/02/03 19:05:40;;;;;;;1999.90;999.90;;;;;;;7.99;100.00;102875.50;10414748;28;20404;-74
2023/02/03 19:10:42;;;;;;;1999.90;999.90;;;;;;;7.91;100.00;102877.34;10414017;28;20064;-74
2023/02/03 19:15:46;;;;;;;1999.90;999.90;;;;;;;7.88;100.00;102860.88;10413586;28;20437;-74
2023/02/03 19:20:49;;;;;;;1999.90;999.90;;;;;;;7.93;100.00;102874.72;10412548;28;20140;-74
2023/02/03 19:25:52;;;;;;;1999.90;999.90;;;;;;;7.91;100.00;102881.69;10397317;28;20057;-72
2023/02/03 19:30:54;;;;;;;1999.90;999.90;;;;;;;7.93;100.00;102890.34;10410844;28;20064;-73
2023/02/03 19:36:08;;;;;;;1999.90;999.90;;;;;;;8.02;100.00;102895.47;10410019;28;20144;-72
2023/02/03 19:41:11;;;;;;;1999.90;999.90;;;;;;;7.94;100.00;102903.38;10415882;28;20112;-73
2023/02/03 19:46:13;;;;;;;1999.90;999.90;;;;;;;8.00;100.00;102905.03;10401382;28;20140;-72
2023/02/03 19:51:16;;;;;;;1999.90;999.90;;;;;;;7.91;100.00;102908.63;10421055;28;20136;-72
2023/02/03 19:56:18;;;;;;;1999.90;999.90;;;;;;;7.78;100.00;102914.88;10420925;28;20108;-72
2023/02/03 20:01:22;;;;;;;1999.90;999.90;;;;;;;7.75;100.00;102934.06;10419145;28;20057;-72
2023/02/03 20:06:25;;;;;;;1999.90;999.90;;;;;;;7.91;100.00;102928.66;10418702;28;20397;-72
2023/02/03 20:11:28;;;;;;;1999.90;999.90;;;;;;;7.89;100.00;102935.63;10418832;28;20419;-72
2023/02/03 20:16:30;;;;;;;1999.90;999.90;;;;;;;7.85;100.00;102944.34;10418113;28;20112;-72
2023/02/03 20:21:32;;;;;;;1999.90;999.90;;;;;;;7.92;100.00;102943.44;10419282;28;20045;-72
2023/02/03 20:26:35;;;;;;;1999.90;999.90;;;;;;;7.78;100.00;102952.28;10418455;28;20103;-72
2023/02/03 20:31:37;;;;;;;1999.90;999.90;;;;;;;7.81;100.00;102948.75;10413944;28;20489;-72
2023/02/03 20:36:40;;;;;;;1999.90;999.90;;;;;;;7.80;100.00;102953.13;10415097;28;20084;-73
2023/02/03 20:41:42;;;;;;;1999.90;999.90;;;;;;;7.82;100.00;102963.53;10415425;28;20053;-72
2023/02/03 20:46:45;;;;;;;1999.90;999.90;;;;;;;7.71;100.00;102957.56;10413576;28;20108;-72
2023/02/03 20:51:47;;;;;;;1999.90;999.90;;;;;;;7.61;100.00;102955.03;10399898;28;20053;-72
2023/02/03 20:56:49;;;;;;;1999.90;999.90;;;;;;;7.85;100.00;102952.19;10416152;28;20099;-72
2023/02/03 21:01:52;;;;;;;1999.90;999.90;;;;;;;7.62;100.00;102962.00;10417235;28;20415;-73
2023/02/03 21:06:54;;;;;;;1999.90;999.90;;;;;;;7.72;100.00;102970.59;10415396;28;20061;-72
2023/02/03 21:11:57;;;;;;;1999.90;999.90;;;;;;;7.87;100.00;102963.44;10415794;28;20069;-72
2023/02/03 21:16:59;;;;;;;1999.90;999.90;;;;;;;7.93;100.00;102971.22;10413432;28;20065;-72
2023/02/03 21:22:17;;;;;;;1999.90;999.90;;;;;;;7.96;100.00;102977.25;10412847;28;20053;-72
2023/02/03 21:27:31;;;;;;;1999.90;999.90;;;;;;;7.90;100.00;102977.34;10415208;28;20111;-71
2023/02/03 21:32:37;;;;;;;1999.90;999.90;;;;;;;7.84;100.00;102984.38;10414773;28;20061;-72
2023/02/03 21:37:40;;;;;;;1999.90;999.90;;;;;;;7.94;100.00;102996.44;10411798;28;20053;-72
2023/02/03 21:42:44;;;;;;;1999.90;999.90;;;;;;;7.97;100.00;102989.44;10413626;28;20111;-72
2023/02/03 21:47:49;;;;;;;1999.90;999.90;;;;;;;8.00;100.00;102997.22;10414563;28;20050;-72
2023/02/03 21:52:51;;;;;;;1999.90;999.90;;;;;;;7.95;100.00;103006.84;10393913;28;20058;-72
2023/02/03 21:57:53;;;;;;;1999.90;999.90;;;;;;;7.98;100.00;103008.56;10408424;28;20049;-73
2023/02/03 22:02:59;;;;;;;1999.90;999.90;;;;;;;7.96;100.00;103019.00;10416252;28;20096;-73
2023/02/03 22:08:18;;;;;;;1999.90;999.90;;;;;;;8.05;100.00;103027.59;10415087;28;20053;-72
2023/02/03 22:13:20;;;;;;;1999.90;999.90;;;;;;;8.04;100.00;103028.50;10415652;28;20060;-73
2023/02/03 22:18:23;;;;;;;1999.90;999.90;;;;;;;8.09;100.00;103037.16;10415278;28;20057;-72
2023/02/03 22:23:25;;;;;;;1999.90;999.90;;;;;;;7.94;100.00;103040.78;10413886;28;20053;-72
2023/02/03 22:28:28;;;;;;;1999.90;999.90;;;;;;;8.02;100.00;103044.19;10414510;28;20459;-73
2023/02/03 22:33:31;;;;;;;1999.90;999.90;;;;;;;7.90;100.00;103047.78;10415499;28;20496;-73
2023/02/03 22:38:34;;;;;;;1999.90;999.90;;;;;;;8.04;100.00;103052.00;10415065;28;20100;-73
2023/02/03 22:43:36;;;;;;;1999.90;999.90;;;;;;;7.96;100.00;103057.28;10413438;28;20065;-72